Time;durP1;ratioP1;P1;durP2;ratioP2;P2;SDS_P1;SDS_P2;PMS_P1;PMS_P2;Temp;Humidity;BMP_temperature;BMP_pressure;BME280_temperature;BME280_humidity;BME280_pressure;Samples;Min_cycle;Max_cycle;Signal;HPM_P1;HPM_P2
2022/09/24 00:01:18;;;;;;;0.10;0.10;;;;;;;;;;5056908;28;20048;-87
2022/09/24 00:03:45;;;;;;;0.20;0.20;;;;;;;;;;5056942;28;20059;-87
2022/09/24 00:06:14;;;;;;;0.10;0.10;;;;;;;;;;5056875;28;20044;-87
2022/09/24 00:08:44;;;;;;;0.10;0.10;;;;;;;;;;5056804;28;20044;-87
2022/09/24 00:11:11;;;;;;;0.17;0.17;;;;;;;;;;5056761;28;20046;-87
2022/09/24 00:13:37;;;;;;;0.20;0.20;;;;;;;;;;5073501;28;20041;-87
2022/09/24 00:16:05;;;;;;;0.10;0.10;;;;;;;;;;5056764;28;20032;-87
2022/09/24 00:18:31;;;;;;;0.13;0.13;;;;;;;;;;5056667;28;20083;-87
2022/09/24 00:20:57;;;;;;;0.20;0.20;;;;;;;;;;5056632;28;20036;-86
2022/09/24 00:23:23;;;;;;;0.10;0.10;;;;;;;;;;5056599;28;20466;-87
2022/09/24 00:28:34;;;;;;;0.20;0.20;;;;;;;;;;5073149;28;20048;-87
2022/09/24 00:31:05;;;;;;;0.10;0.10;;;;;;;;;;5056488;28;20123;-86
2022/09/24 00:33:32;;;;;;;0.10;0.10;;;;;;;;;;5056255;28;20460;-87
2022/09/24 00:36:03;;;;;;;0.20;0.20;;;;;;;;;;5056564;28;20553;-87
2022/09/24 00:38:29;;;;;;;0.10;0.10;;;;;;;;;;5056267;28;20423;-87
2022/09/24 00:40:55;;;;;;;0.15;0.15;;;;;;;;;;5056241;28;20538;-87
2022/09/24 00:43:35;;;;;;;0.10;0.10;;;;;;;;;;5056346;28;20076;-87
2022/09/24 00:46:04;;;;;;;0.10;0.10;;;;;;;;;;5056020;28;20456;-86
2022/09/24 00:48:32;;;;;;;0.05;0.05;;;;;;;;;;5056374;28;20509;-86
2022/09/24 00:50:59;;;;;;;0.10;0.10;;;;;;;;;;5056139;28;20052;-87
2022/09/24 00:53:30;;;;;;;0.10;0.10;;;;;;;;;;5076729;28;20036;-87
2022/09/24 00:55:56;;;;;;;0.13;0.13;;;;;;;;;;5076282;28;20040;-87
2022/09/24 00:58:23;;;;;;;0.20;0.20;;;;;;;;;;5076078;28;20123;-87
2022/09/24 01:00:51;;;;;;;0.13;0.13;;;;;;;;;;5075973;28;20084;-87
2022/09/24 01:03:21;;;;;;;0.10;0.10;;;;;;;;;;5075979;28;20055;-86
2022/09/24 01:05:47;;;;;;;0.20;0.20;;;;;;;;;;5092576;28;20069;-87
2022/09/24 01:08:13;;;;;;;0.20;0.20;;;;;;;;;;5063101;28;20041;-87
2022/09/24 01:10:58;;;;;;;0.20;0.20;;;;;;;;;;5055341;28;20040;-87
2022/09/24 01:13:25;;;;;;;0.20;0.20;;;;;;;;;;5055688;28;20093;-86
2022/09/24 01:16:14;;;;;;;0.10;0.10;;;;;;;;;;5055738;28;20137;-86
2022/09/24 01:18:44;;;;;;;0.30;0.30;;;;;;;;;;5055852;28;20084;-86
2022/09/24 01:21:18;;;;;;;0.20;0.20;;;;;;;;;;5072108;28;20051;-87
2022/09/24 01:24:03;;;;;;;0.20;0.20;;;;;;;;;;5055657;28;20048;-87
2022/09/24 01:26:35;;;;;;;0.10;0.10;;;;;;;;;;5055730;28;20409;-86
2022/09/24 01:29:22;;;;;;;0.25;0.25;;;;;;;;;;5055333;28;20075;-87
2022/09/24 01:32:00;;;;;;;0.00;0.00;;;;;;;;;;5055221;28;20058;-86
2022/09/24 01:34:29;;;;;;;0.17;0.17;;;;;;;;;;5055245;28;20034;-87
2022/09/24 01:36:56;;;;;;;0.20;0.20;;;;;;;;;;5055241;28;20162;-87
2022/09/24 01:39:23;;;;;;;0.20;0.20;;;;;;;;;;5055233;28;20511;-87
2022/09/24 01:41:50;;;;;;;0.10;0.10;;;;;;;;;;5055364;28;20519;-86
2022/09/24 01:44:17;;;;;;;0.20;0.20;;;;;;;;;;5072131;28;20048;-86
2022/09/24 01:46:43;;;;;;;0.17;0.17;;;;;;;;;;5055362;28;20440;-87
2022/09/24 01:49:09;;;;;;;0.20;0.20;;;;;;;;;;5055004;28;20512;-86
2022/09/24 01:51:40;;;;;;;0.20;0.20;;;;;;;;;;5071692;28;20086;-87
2022/09/24 01:54:08;;;;;;;0.10;0.10;;;;;;;;;;5054917;28;20044;-87
2022/09/24 01:56:54;;;;;;;0.10;0.10;;;;;;;;;;5055241;28;20128;-87
2022/09/24 01:59:41;;;;;;;0.10;0.10;;;;;;;;;;5071851;28;20040;-87
2022/09/24 02:02:13;;;;;;;0.20;0.20;;;;;;;;;;5072171;28;20044;-87
2022/09/24 02:04:41;;;;;;;0.10;0.10;;;;;;;;;;5059193;28;20444;-86
2022/09/24 02:07:32;;;;;;;0.20;0.20;;;;;;;;;;5076010;28;20041;-87
2022/09/24 02:09:58;;;;;;;0.20;0.20;;;;;;;;;;5059013;28;20447;-87
2022/09/24 02:12:30;;;;;;;0.10;0.10;;;;;;;;;;5059229;28;20494;-87
2022/09/24 02:15:03;;;;;;;0.20;0.20;;;;;;;;;;5059960;28;20040;-87
2022/09/24 02:17:31;;;;;;;0.20;0.20;;;;;;;;;;5079262;28;20043;-87
2022/09/24 02:19:58;;;;;;;0.20;0.20;;;;;;;;;;5079027;28;20044;-87
2022/09/24 02:22:25;;;;;;;0.15;0.15;;;;;;;;;;5078870;28;20036;-86
2022/09/24 02:24:53;;;;;;;0.17;0.17;;;;;;;;;;5078513;28;20123;-87
2022/09/24 02:27:20;;;;;;;0.20;0.20;;;;;;;;;;5078973;28;20048;-87
2022/09/24 02:29:46;;;;;;;0.20;0.20;;;;;;;;;;5095736;28;20040;-86
2022/09/24 02:32:18;;;;;;;0.20;0.20;;;;;;;;;;5072756;28;20037;-87
2022/09/24 02:34:49;;;;;;;0.10;0.10;;;;;;;;;;5058549;28;20036;-87
2022/09/24 02:37:16;;;;;;;0.10;0.10;;;;;;;;;;5058652;28;20071;-87
2022/09/24 02:39:42;;;;;;;0.10;0.10;;;;;;;;;;5058519;28;20160;-87
2022/09/24 02:42:10;;;;;;;0.10;0.10;;;;;;;;;;5058423;28;20402;-87
2022/09/24 02:44:36;;;;;;;0.10;0.10;;;;;;;;;;5058644;28;20436;-87
2022/09/24 02:47:02;;;;;;;0.10;0.10;;;;;;;;;;5058599;28;20404;-87
2022/09/24 02:49:28;;;;;;;0.13;0.13;;;;;;;;;;5074793;28;20515;-86
2022/09/24 02:51:55;;;;;;;0.10;0.10;;;;;;;;;;5058375;28;20504;-87
2022/09/24 02:54:22;;;;;;;0.20;0.20;;;;;;;;;;5058235;28;20055;-87
2022/09/24 02:56:49;;;;;;;0.10;0.10;;;;;;;;;;5075557;28;20045;-87
2022/09/24 02:59:15;;;;;;;0.20;0.20;;;;;;;;;;5074689;28;20157;-87
2022/09/24 03:01:41;;;;;;;0.20;0.20;;;;;;;;;;5075107;28;20515;-87
2022/09/24 03:04:07;;;;;;;0.20;0.20;;;;;;;;;;5058172;28;20045;-87
2022/09/24 03:06:33;;;;;;;0.20;0.20;;;;;;;;;;5058135;28;20181;-87
2022/09/24 03:09:01;;;;;;;0.10;0.10;;;;;;;;;;5057815;28;20116;-87
2022/09/24 03:11:31;;;;;;;0.13;0.13;;;;;;;;;;5058241;28;20093;-87
2022/09/24 03:13:58;;;;;;;0.17;0.17;;;;;;;;;;5057288;28;20083;-87
2022/09/24 03:16:24;;;;;;;0.15;0.15;;;;;;;;;;5057311;28;20033;-87
2022/09/24 03:18:50;;;;;;;0.10;0.10;;;;;;;;;;5057703;28;20036;-86
2022/09/24 03:21:18;;;;;;;0.10;0.10;;;;;;;;;;5058010;28;20558;-87
2022/09/24 03:23:44;;;;;;;0.10;0.10;;;;;;;;;;5057595;28;20033;-87
2022/09/24 03:26:10;;;;;;;0.13;0.13;;;;;;;;;;5057825;28;20041;-87
2022/09/24 03:28:37;;;;;;;0.15;0.15;;;;;;;;;;5057606;28;20048;-87
2022/09/24 03:31:03;;;;;;;0.20;0.20;;;;;;;;;;5057523;28;20059;-87
2022/09/24 03:33:34;;;;;;;0.20;0.20;;;;;;;;;;5057539;28;20044;-87
2022/09/24 03:36:01;;;;;;;0.13;0.13;;;;;;;;;;5057478;28;20044;-87
2022/09/24 03:38:28;;;;;;;0.30;0.30;;;;;;;;;;5057407;28;20101;-87
2022/09/24 03:40:54;;;;;;;0.10;0.10;;;;;;;;;;5057479;28;20044;-87
2022/09/24 03:43:20;;;;;;;0.17;0.17;;;;;;;;;;5074242;28;20101;-86
2022/09/24 03:45:47;;;;;;;0.10;0.10;;;;;;;;;;5063682;28;20040;-86
2022/09/24 03:48:14;;;;;;;0.10;0.10;;;;;;;;;;5077396;28;20048;-87
2022/09/24 03:50:40;;;;;;;0.10;0.10;;;;;;;;;;5077224;28;20078;-87
2022/09/24 03:53:06;;;;;;;0.10;0.10;;;;;;;;;;5077359;28;20497;-87
2022/09/24 03:55:32;;;;;;;0.20;0.20;;;;;;;;;;5077044;28;20153;-87
2022/09/24 03:57:58;;;;;;;0.20;0.20;;;;;;;;;;5077009;28;20032;-87
2022/09/24 04:00:24;;;;;;;0.15;0.15;;;;;;;;;;5093707;28;20040;-87
2022/09/24 04:02:50;;;;;;;0.15;0.15;;;;;;;;;;5094099;28;20404;-87
2022/09/24 04:05:16;;;;;;;0.20;0.20;;;;;;;;;;5077165;28;20082;-86
2022/09/24 04:07:43;;;;;;;0.10;0.10;;;;;;;;;;5076959;28;20047;-87
2022/09/24 04:10:09;;;;;;;0.20;0.20;;;;;;;;;;5077022;28;20070;-87
2022/09/24 04:12:35;;;;;;;0.20;0.20;;;;;;;;;;5076717;28;20036;-87
2022/09/24 04:15:01;;;;;;;0.10;0.10;;;;;;;;;;5077144;28;20064;-87
2022/09/24 04:17:30;;;;;;;0.20;0.20;;;;;;;;;;5057456;28;20094;-86
2022/09/24 04:19:57;;;;;;;0.20;0.20;;;;;;;;;;5056586;28;20041;-87
2022/09/24 04:22:23;;;;;;;0.20;0.20;;;;;;;;;;5056573;28;20063;-87
2022/09/24 04:24:50;;;;;;;0.20;0.20;;;;;;;;;;5056433;28;20044;-87
2022/09/24 04:27:16;;;;;;;0.20;0.20;;;;;;;;;;5073448;28;20066;-87
2022/09/24 04:29:42;;;;;;;0.20;0.20;;;;;;;;;;5093222;28;20055;-87
2022/09/24 04:32:08;;;;;;;0.20;0.20;;;;;;;;;;5093626;28;20373;-87
2022/09/24 04:34:34;;;;;;;0.10;0.10;;;;;;;;;;5076386;28;20044;-86
2022/09/24 04:37:00;;;;;;;0.20;0.20;;;;;;;;;;5076363;28;20040;-87
2022/09/24 04:39:26;;;;;;;0.20;0.20;;;;;;;;;;5093091;28;20051;-87
2022/09/24 04:41:55;;;;;;;0.15;0.15;;;;;;;;;;5076109;28;20131;-87
2022/09/24 04:44:22;;;;;;;0.30;0.30;;;;;;;;;;5076435;28;20127;-87
2022/09/24 04:46:48;;;;;;;0.25;0.25;;;;;;;;;;5076230;28;20127;-87
2022/09/24 04:49:14;;;;;;;0.10;0.10;;;;;;;;;;5093011;28;20489;-87
2022/09/24 04:51:40;;;;;;;0.32;0.32;;;;;;;;;;5075984;28;20042;-87
2022/09/24 04:54:06;;;;;;;0.10;0.10;;;;;;;;;;5092888;28;20404;-87
2022/09/24 04:56:32;;;;;;;0.20;0.20;;;;;;;;;;5076024;28;20055;-87
2022/09/24 04:58:58;;;;;;;0.13;0.13;;;;;;;;;;5075887;28;20484;-86
2022/09/24 05:01:24;;;;;;;0.13;0.13;;;;;;;;;;5075802;28;20043;-87
2022/09/24 05:03:50;;;;;;;0.20;0.20;;;;;;;;;;5075843;28;20059;-87
2022/09/24 05:06:16;;;;;;;0.10;0.10;;;;;;;;;;5076116;28;20472;-87
2022/09/24 05:08:42;;;;;;;0.20;0.20;;;;;;;;;;5075749;28;20055;-87
2022/09/24 05:11:08;;;;;;;0.20;0.20;;;;;;;;;;5075765;28;20497;-87
2022/09/24 05:13:34;;;;;;;0.10;0.10;;;;;;;;;;5092445;28;20047;-87
2022/09/24 05:16:01;;;;;;;0.10;0.10;;;;;;;;;;5075583;28;20040;-87
2022/09/24 05:18:27;;;;;;;0.20;0.20;;;;;;;;;;5075668;28;20040;-87
2022/09/24 05:20:53;;;;;;;0.10;0.10;;;;;;;;;;5092199;28;20040;-87
2022/09/24 05:23:19;;;;;;;0.10;0.10;;;;;;;;;;5075638;28;20047;-87
2022/09/24 05:28:32;;;;;;;0.10;0.10;;;;;;;;;;5092459;28;20471;-87
2022/09/24 05:30:58;;;;;;;0.10;0.10;;;;;;;;;;5075238;28;20408;-87
2022/09/24 05:33:24;;;;;;;0.15;0.15;;;;;;;;;;5092140;28;20101;-87
2022/09/24 05:35:54;;;;;;;0.20;0.20;;;;;;;;;;5075160;28;20066;-87
2022/09/24 05:38:20;;;;;;;0.20;0.20;;;;;;;;;;5074571;28;20063;-87
2022/09/24 05:40:46;;;;;;;0.10;0.10;;;;;;;;;;5093118;28;20036;-87
2022/09/24 05:43:13;;;;;;;0.20;0.20;;;;;;;;;;5075291;28;20075;-87
2022/09/24 05:45:40;;;;;;;0.10;0.10;;;;;;;;;;5065873;28;20195;-87
2022/09/24 05:48:06;;;;;;;0.10;0.10;;;;;;;;;;5072508;28;20053;-87
2022/09/24 05:50:33;;;;;;;0.10;0.10;;;;;;;;;;5055308;28;20114;-87
2022/09/24 05:53:00;;;;;;;0.10;0.10;;;;;;;;;;5071969;28;20045;-87
2022/09/24 05:55:26;;;;;;;0.10;0.10;;;;;;;;;;5055443;28;20041;-87
2022/09/24 05:57:52;;;;;;;0.20;0.20;;;;;;;;;;5055670;28;20170;-87
2022/09/24 06:00:19;;;;;;;0.10;0.10;;;;;;;;;;5055446;28;20405;-87
2022/09/24 06:02:45;;;;;;;0.20;0.20;;;;;;;;;;5084021;28;20040;-86
2022/09/24 06:05:11;;;;;;;0.17;0.17;;;;;;;;;;5054974;28;20047;-86
2022/09/24 06:07:37;;;;;;;0.10;0.10;;;;;;;;;;5055023;28;20040;-86
2022/09/24 06:10:06;;;;;;;0.20;0.20;;;;;;;;;;5055292;28;20040;-86
2022/09/24 06:12:33;;;;;;;0.10;0.10;;;;;;;;;;5074003;28;20028;-86
2022/09/24 06:15:00;;;;;;;0.20;0.20;;;;;;;;;;5076752;28;20081;-86
2022/09/24 06:17:27;;;;;;;0.10;0.10;;;;;;;;;;5055283;28;20555;-86
2022/09/24 06:19:54;;;;;;;0.10;0.10;;;;;;;;;;5054699;28;20523;-86
2022/09/24 06:22:20;;;;;;;0.20;0.20;;;;;;;;;;5055062;28;20033;-86
2022/09/24 06:24:46;;;;;;;0.13;0.13;;;;;;;;;;5076626;28;20386;-86
2022/09/24 06:27:12;;;;;;;0.20;0.20;;;;;;;;;;5070439;28;20064;-86
2022/09/24 06:29:38;;;;;;;0.25;0.25;;;;;;;;;;5054636;28;20075;-86
2022/09/24 06:32:04;;;;;;;0.20;0.20;;;;;;;;;;5054756;28;20498;-85
2022/09/24 06:34:30;;;;;;;0.20;0.20;;;;;;;;;;5054503;28;20047;-86
2022/09/24 06:36:56;;;;;;;0.10;0.10;;;;;;;;;;5079655;28;20424;-85
2022/09/24 06:39:23;;;;;;;0.10;0.10;;;;;;;;;;5071236;28;20036;-85
2022/09/24 06:41:50;;;;;;;0.15;0.15;;;;;;;;;;5054516;28;20068;-85
2022/09/24 06:44:17;;;;;;;0.10;0.10;;;;;;;;;;5054548;28;20721;-85
2022/09/24 06:46:44;;;;;;;0.15;0.15;;;;;;;;;;5054716;28;20048;-85
2022/09/24 06:49:10;;;;;;;0.17;0.17;;;;;;;;;;5055485;28;20552;-85
2022/09/24 06:51:37;;;;;;;0.10;0.10;;;;;;;;;;5058411;28;20082;-85
2022/09/24 06:54:03;;;;;;;0.20;0.20;;;;;;;;;;5074947;28;20080;-85
2022/09/24 06:56:29;;;;;;;0.15;0.15;;;;;;;;;;5075428;28;20072;-85
2022/09/24 06:58:56;;;;;;;0.10;0.10;;;;;;;;;;5060618;28;20036;-85
2022/09/24 07:01:22;;;;;;;0.10;0.10;;;;;;;;;;5069569;28;20514;-86
2022/09/24 07:03:48;;;;;;;0.10;0.10;;;;;;;;;;5078260;28;20498;-86
2022/09/24 07:06:14;;;;;;;0.13;0.13;;;;;;;;;;5094913;28;20040;-86
2022/09/24 07:08:40;;;;;;;0.22;0.22;;;;;;;;;;5077911;28;20043;-85
2022/09/24 07:11:07;;;;;;;0.10;0.10;;;;;;;;;;5094659;28;20108;-85
2022/09/24 07:13:33;;;;;;;0.10;0.10;;;;;;;;;;5077958;28;20047;-85
2022/09/24 07:16:00;;;;;;;0.10;0.10;;;;;;;;;;5057785;28;20417;-85
2022/09/24 07:18:26;;;;;;;0.20;0.20;;;;;;;;;;5057990;28;20041;-85
2022/09/24 07:20:52;;;;;;;0.10;0.10;;;;;;;;;;5057724;28;20040;-85
2022/09/24 07:23:19;;;;;;;0.10;0.10;;;;;;;;;;5070071;28;20119;-86
2022/09/24 07:25:45;;;;;;;0.10;0.10;;;;;;;;;;5061325;28;20043;-86
2022/09/24 07:28:12;;;;;;;0.20;0.20;;;;;;;;;;5057741;28;20041;-86
2022/09/24 07:30:38;;;;;;;0.10;0.10;;;;;;;;;;5057504;28;20058;-85
2022/09/24 07:33:06;;;;;;;0.10;0.10;;;;;;;;;;5057334;28;20080;-85
2022/09/24 07:35:32;;;;;;;0.08;0.08;;;;;;;;;;5057584;28;20039;-85
2022/09/24 07:38:03;;;;;;;0.10;0.10;;;;;;;;;;5073879;28;20033;-85
2022/09/24 07:40:29;;;;;;;0.20;0.20;;;;;;;;;;5077181;28;20119;-85
2022/09/24 07:42:55;;;;;;;0.10;0.10;;;;;;;;;;5074470;28;20116;-85
2022/09/24 07:45:22;;;;;;;0.10;0.10;;;;;;;;;;5057147;28;20138;-86
2022/09/24 07:47:48;;;;;;;0.10;0.10;;;;;;;;;;5088047;28;20054;-86
2022/09/24 07:50:15;;;;;;;0.10;0.10;;;;;;;;;;5076941;28;20036;-86
2022/09/24 07:52:41;;;;;;;0.10;0.10;;;;;;;;;;5093951;28;20080;-86
2022/09/24 07:55:07;;;;;;;0.10;0.10;;;;;;;;;;5076908;28;20067;-85
2022/09/24 07:57:33;;;;;;;0.20;0.20;;;;;;;;;;5077028;28;20036;-86
2022/09/24 07:59:59;;;;;;;0.13;0.13;;;;;;;;;;5093718;28;20432;-86
2022/09/24 08:02:25;;;;;;;0.10;0.10;;;;;;;;;;5076154;28;20032;-86
2022/09/24 08:04:51;;;;;;;0.20;0.20;;;;;;;;;;5076889;28;20043;-86
2022/09/24 08:07:17;;;;;;;0.13;0.13;;;;;;;;;;5076966;28;20077;-86
2022/09/24 08:09:43;;;;;;;0.10;0.10;;;;;;;;;;5076557;28;20040;-86
2022/09/24 08:12:11;;;;;;;0.10;0.10;;;;;;;;;;5063148;28;20037;-85
2022/09/24 08:14:37;;;;;;;0.10;0.10;;;;;;;;;;5056492;28;20037;-85
2022/09/24 08:17:03;;;;;;;0.10;0.10;;;;;;;;;;5056722;28;20405;-86
2022/09/24 08:19:31;;;;;;;0.10;0.10;;;;;;;;;;5056624;28;20040;-86
2022/09/24 08:21:58;;;;;;;0.10;0.10;;;;;;;;;;5056483;28;20090;-86
2022/09/24 08:24:24;;;;;;;0.10;0.10;;;;;;;;;;5056625;28;20093;-86
2022/09/24 08:26:50;;;;;;;0.10;0.10;;;;;;;;;;5075851;28;20043;-86
2022/09/24 08:29:17;;;;;;;0.20;0.20;;;;;;;;;;5076483;28;20047;-86
2022/09/24 08:31:43;;;;;;;0.20;0.20;;;;;;;;;;5076556;28;20139;-86
2022/09/24 08:34:09;;;;;;;0.20;0.20;;;;;;;;;;5076175;28;20040;-86
2022/09/24 08:36:35;;;;;;;0.20;0.20;;;;;;;;;;5063062;28;20037;-86
2022/09/24 08:39:01;;;;;;;0.10;0.10;;;;;;;;;;5056154;28;20041;-86
2022/09/24 08:41:27;;;;;;;0.20;0.20;;;;;;;;;;5056260;28;20044;-86
2022/09/24 08:43:53;;;;;;;0.20;0.20;;;;;;;;;;5056060;28;20087;-86
2022/09/24 08:49:06;;;;;;;0.20;0.20;;;;;;;;;;5072429;28;20140;-86
2022/09/24 08:51:36;;;;;;;0.20;0.20;;;;;;;;;;5056255;28;20098;-86
2022/09/24 08:54:10;;;;;;;0.10;0.10;;;;;;;;;;5055658;28;20040;-86
2022/09/24 08:56:38;;;;;;;0.20;0.20;;;;;;;;;;5057393;28;20488;-86
2022/09/24 08:59:23;;;;;;;0.08;0.08;;;;;;;;;;5071509;28;20043;-86
2022/09/24 09:01:55;;;;;;;0.20;0.20;;;;;;;;;;5073253;28;20071;-86
2022/09/24 09:04:30;;;;;;;0.20;0.20;;;;;;;;;;5072305;28;20063;-86
2022/09/24 09:06:56;;;;;;;;;;;;;;;;;;5055871;28;20397;-86
2022/09/24 09:09:30;;;;;;;0.20;0.20;;;;;;;;;;5087841;28;19963;-86
2022/09/24 09:11:58;;;;;;;0.20;0.20;;;;;;;;;;5059308;28;20079;-86
2022/09/24 09:14:43;;;;;;;0.10;0.10;;;;;;;;;;5087000;28;20071;-86
2022/09/24 09:17:14;;;;;;;0.10;0.10;;;;;;;;;;5055339;28;20036;-86
2022/09/24 09:19:42;;;;;;;0.10;0.10;;;;;;;;;;5072035;28;20072;-86
2022/09/24 09:22:13;;;;;;;0.20;0.20;;;;;;;;;;5055514;28;20043;-86
2022/09/24 09:24:47;;;;;;;0.20;0.20;;;;;;;;;;5090147;28;20083;-86
2022/09/24 09:27:14;;;;;;;0.10;0.10;;;;;;;;;;5075679;28;20507;-86
2022/09/24 09:29:58;;;;;;;0.10;0.10;;;;;;;;;;5092202;28;20051;-86
2022/09/24 09:32:37;;;;;;;0.17;0.17;;;;;;;;;;5075255;28;20499;-86
2022/09/24 09:38:40;;;;;;;0.10;0.10;;;;;;;;;;5073092;28;20051;-87
2022/09/24 09:41:13;;;;;;;0.10;0.10;;;;;;;;;;5054479;28;20037;-86
2022/09/24 09:43:40;;;;;;;0.13;0.13;;;;;;;;;;5071599;28;20048;-86
2022/09/24 09:46:12;;;;;;;0.10;0.10;;;;;;;;;;5063299;28;20040;-86
2022/09/24 09:48:53;;;;;;;0.20;0.20;;;;;;;;;;5058848;28;20047;-86
2022/09/24 09:51:19;;;;;;;0.00;0.00;;;;;;;;;;5071731;28;20127;-86
2022/09/24 09:53:58;;;;;;;0.10;0.10;;;;;;;;;;5069882;28;20471;-86
2022/09/24 09:56:26;;;;;;;0.10;0.10;;;;;;;;;;5060871;28;20070;-86
2022/09/24 09:59:00;;;;;;;0.28;0.28;;;;;;;;;;5054800;28;20036;-86
2022/09/24 10:01:34;;;;;;;0.20;0.20;;;;;;;;;;5054827;28;20040;-86
2022/09/24 10:04:02;;;;;;;0.20;0.20;;;;;;;;;;5054876;28;20044;-86
2022/09/24 10:06:37;;;;;;;0.10;0.10;;;;;;;;;;5072163;28;20462;-86
2022/09/24 10:11:33;;;;;;;0.20;0.20;;;;;;;;;;5091424;28;20002;-86
2022/09/24 10:14:05;;;;;;;0.10;0.10;;;;;;;;;;5074537;28;20044;-87
2022/09/24 10:16:37;;;;;;;0.10;0.10;;;;;;;;;;5058590;28;20040;-86
2022/09/24 10:19:28;;;;;;;0.20;0.20;;;;;;;;;;5074518;28;20036;-87
2022/09/24 10:21:56;;;;;;;0.10;0.10;;;;;;;;;;5091914;28;20036;-87
2022/09/24 10:24:24;;;;;;;0.10;0.10;;;;;;;;;;5077028;28;20036;-91
2022/09/24 10:26:50;;;;;;;0.10;0.10;;;;;;;;;;5080010;28;20044;-91
2022/09/24 10:32:03;;;;;;;0.10;0.10;;;;;;;;;;5076674;28;20041;-90
2022/09/24 10:34:30;;;;;;;0.10;0.10;;;;;;;;;;5071939;28;20040;-91
2022/09/24 10:37:01;;;;;;;0.20;0.20;;;;;;;;;;5059919;28;20093;-92
2022/09/24 10:39:27;;;;;;;0.10;0.10;;;;;;;;;;5059480;28;20044;-91
2022/09/24 10:41:57;;;;;;;0.17;0.17;;;;;;;;;;5059735;28;20044;-92
2022/09/24 10:44:36;;;;;;;0.10;0.10;;;;;;;;;;5067223;28;20572;-94
2022/09/24 10:47:06;;;;;;;0.10;0.10;;;;;;;;;;5085155;28;20370;-94
2022/09/24 10:49:38;;;;;;;0.10;0.10;;;;;;;;;;5066885;28;20040;-93
2022/09/24 10:52:14;;;;;;;0.20;0.20;;;;;;;;;;5074560;28;20044;-95
2022/09/24 10:54:50;;;;;;;0.20;0.20;;;;;;;;;;5072167;28;20119;-93
2022/09/24 10:57:28;;;;;;;0.20;0.20;;;;;;;;;;5079824;28;20036;-93
2022/09/24 11:00:02;;;;;;;0.30;0.30;;;;;;;;;;5070050;28;20036;-93
2022/09/24 11:02:31;;;;;;;0.10;0.10;;;;;;;;;;5067715;28;20485;-93
2022/09/24 11:04:57;;;;;;;0.20;0.20;;;;;;;;;;5068150;28;20039;-94
2022/09/24 11:07:26;;;;;;;0.20;0.20;;;;;;;;;;5066606;28;20443;-94
2022/09/24 11:09:58;;;;;;;0.10;0.10;;;;;;;;;;5069746;28;20373;-93
2022/09/24 11:12:34;;;;;;;0.10;0.10;;;;;;;;;;5066686;28;20075;-93
2022/09/24 11:15:01;;;;;;;0.00;0.00;;;;;;;;;;5066963;28;20052;-95
2022/09/24 11:17:27;;;;;;;0.10;0.10;;;;;;;;;;5067546;28;20059;-93
2022/09/24 11:19:53;;;;;;;0.10;0.10;;;;;;;;;;5067032;28;20101;-93
2022/09/24 11:22:24;;;;;;;0.10;0.10;;;;;;;;;;5069649;28;20489;-93
2022/09/24 11:25:09;;;;;;;0.15;0.15;;;;;;;;;;5062001;28;20058;-93
2022/09/24 11:27:55;;;;;;;0.10;0.10;;;;;;;;;;5065268;28;20485;-95
2022/09/24 11:30:33;;;;;;;0.10;0.10;;;;;;;;;;5057665;28;20048;-94
2022/09/24 11:33:18;;;;;;;0.10;0.10;;;;;;;;;;5068198;28;20043;-93
2022/09/24 11:36:03;;;;;;;0.10;0.10;;;;;;;;;;5064106;28;20393;-93
2022/09/24 11:38:41;;;;;;;0.20;0.20;;;;;;;;;;5066739;28;20044;-94
2022/09/24 11:41:09;;;;;;;0.10;0.10;;;;;;;;;;5065759;28;20078;-95
2022/09/24 11:43:49;;;;;;;0.30;0.30;;;;;;;;;;5068312;28;20059;-94
2022/09/24 11:46:30;;;;;;;0.10;0.10;;;;;;;;;;5067022;28;20535;-94
2022/09/24 11:48:56;;;;;;;0.10;0.10;;;;;;;;;;5062444;28;20132;-94
2022/09/24 11:51:31;;;;;;;0.30;0.30;;;;;;;;;;5069035;28;20051;-93
2022/09/24 11:54:11;;;;;;;0.10;0.10;;;;;;;;;;5065949;28;20044;-94
2022/09/24 11:56:42;;;;;;;0.10;0.10;;;;;;;;;;5068852;28;20063;-94
2022/09/24 11:59:19;;;;;;;0.20;0.20;;;;;;;;;;5066430;28;20039;-94
2022/09/24 12:02:08;;;;;;;0.15;0.15;;;;;;;;;;5069046;28;20028;-92
2022/09/24 12:04:44;;;;;;;0.20;0.20;;;;;;;;;;5054104;28;20091;-94
2022/09/24 12:07:13;;;;;;;0.20;0.20;;;;;;;;;;5069160;28;20396;-94
2022/09/24 12:09:42;;;;;;;0.10;0.10;;;;;;;;;;5064624;28;20050;-93
2022/09/24 12:12:13;;;;;;;0.13;0.13;;;;;;;;;;5066408;28;20051;-94
2022/09/24 12:14:52;;;;;;;0.17;0.17;;;;;;;;;;5068186;28;20048;-94
2022/09/24 12:17:38;;;;;;;0.10;0.10;;;;;;;;;;5061423;28;20039;-94
2022/09/24 12:20:19;;;;;;;0.13;0.13;;;;;;;;;;5063300;28;20104;-95
2022/09/24 12:22:47;;;;;;;0.10;0.10;;;;;;;;;;5065586;28;20545;-94
2022/09/24 12:25:13;;;;;;;0.10;0.10;;;;;;;;;;5064625;28;20396;-95
2022/09/24 12:27:39;;;;;;;0.28;0.28;;;;;;;;;;5065794;28;20032;-96
2022/09/24 12:33:08;;;;;;;0.13;0.13;;;;;;;;;;5078550;28;20044;-96
2022/09/24 12:35:54;;;;;;;0.10;0.10;;;;;;;;;;5065545;28;20537;-96
2022/09/24 12:38:20;;;;;;;;;;;;;;;;;;5061572;28;20046;-94
2022/09/24 12:40:46;;;;;;;0.20;0.20;;;;;;;;;;5065556;28;19916;-95
2022/09/24 12:43:18;;;;;;;0.10;0.10;;;;;;;;;;5068428;28;20085;-95
2022/09/24 12:45:45;;;;;;;0.20;0.20;;;;;;;;;;5060615;28;20040;-96
2022/09/24 12:48:13;;;;;;;0.10;0.10;;;;;;;;;;5068145;28;20058;-95
2022/09/24 12:50:40;;;;;;;0.20;0.20;;;;;;;;;;5064403;28;20488;-95
2022/09/24 12:53:23;;;;;;;0.20;0.20;;;;;;;;;;5067557;28;20132;-96
2022/09/24 12:55:49;;;;;;;0.10;0.10;;;;;;;;;;5061148;28;20062;-95
2022/09/24 12:58:34;;;;;;;0.10;0.10;;;;;;;;;;5067798;28;20067;-95
2022/09/24 13:01:27;;;;;;;0.22;0.22;;;;;;;;;;5062270;28;20044;-95
2022/09/24 13:04:11;;;;;;;0.10;0.10;;;;;;;;;;5060333;28;20107;-96
2022/09/24 13:06:38;;;;;;;0.30;0.30;;;;;;;;;;5065043;28;20081;-96
2022/09/24 13:09:23;;;;;;;0.20;0.20;;;;;;;;;;5067072;28;20054;-93
2022/09/24 13:11:59;;;;;;;0.10;0.10;;;;;;;;;;5057194;28;20044;-93
2022/09/24 13:14:28;;;;;;;0.00;0.00;;;;;;;;;;5063658;28;20036;-94
2022/09/24 13:16:55;;;;;;;0.20;0.20;;;;;;;;;;5065581;28;20062;-95
2022/09/24 13:19:26;;;;;;;0.10;0.10;;;;;;;;;;5066502;28;20036;-96
2022/09/24 13:21:54;;;;;;;0.10;0.10;;;;;;;;;;5066591;28;20051;-95
2022/09/24 13:24:36;;;;;;;0.00;0.00;;;;;;;;;;5064689;28;20047;-96
2022/09/24 13:27:28;;;;;;;0.10;0.10;;;;;;;;;;5067117;28;20497;-95
2022/09/24 13:30:06;;;;;;;0.10;0.10;;;;;;;;;;5061735;28;20088;-96
2022/09/24 13:32:36;;;;;;;0.10;0.10;;;;;;;;;;5062245;28;20119;-94
2022/09/24 13:35:06;;;;;;;0.10;0.10;;;;;;;;;;5082995;28;20032;-95
2022/09/24 13:37:39;;;;;;;0.13;0.13;;;;;;;;;;5063432;28;20068;-94
2022/09/24 13:40:31;;;;;;;0.20;0.20;;;;;;;;;;5063003;28;20035;-94
2022/09/24 13:43:06;;;;;;;0.20;0.20;;;;;;;;;;5061353;28;20063;-94
2022/09/24 13:45:33;;;;;;;0.10;0.10;;;;;;;;;;5060284;28;20037;-94
2022/09/24 13:48:02;;;;;;;0.30;0.30;;;;;;;;;;5067779;28;20105;-95
2022/09/24 13:50:36;;;;;;;0.15;0.15;;;;;;;;;;5065899;28;20032;-95
2022/09/24 13:53:06;;;;;;;0.13;0.13;;;;;;;;;;5067245;28;20501;-94
2022/09/24 13:55:46;;;;;;;0.20;0.20;;;;;;;;;;5065199;28;20043;-94
2022/09/24 13:58:26;;;;;;;0.20;0.20;;;;;;;;;;5056009;28;20040;-92
2022/09/24 14:00:52;;;;;;;0.20;0.20;;;;;;;;;;5056618;28;20040;-93
2022/09/24 14:03:25;;;;;;;0.15;0.15;;;;;;;;;;5066201;28;20036;-95
2022/09/24 14:05:51;;;;;;;0.20;0.20;;;;;;;;;;5065772;28;20065;-95
2022/09/24 14:08:20;;;;;;;0.10;0.10;;;;;;;;;;5065502;28;20416;-94
2022/09/24 14:10:47;;;;;;;0.10;0.10;;;;;;;;;;5064199;28;20045;-95
2022/09/24 14:13:16;;;;;;;0.10;0.10;;;;;;;;;;5067172;28;20040;-96
2022/09/24 14:15:54;;;;;;;0.20;0.20;;;;;;;;;;5067960;28;20031;-95
2022/09/24 14:18:21;;;;;;;0.22;0.22;;;;;;;;;;5063031;28;20035;-93
2022/09/24 14:20:50;;;;;;;0.10;0.10;;;;;;;;;;5066856;28;20036;-95
2022/09/24 14:23:18;;;;;;;0.20;0.20;;;;;;;;;;5066341;28;20074;-95
2022/09/24 14:25:45;;;;;;;0.10;0.10;;;;;;;;;;5067561;28;20036;-93
2022/09/24 14:28:12;;;;;;;0.15;0.15;;;;;;;;;;5063756;28;20055;-94
2022/09/24 14:30:46;;;;;;;0.10;0.10;;;;;;;;;;5066990;28;20035;-95
2022/09/24 14:33:14;;;;;;;0.13;0.13;;;;;;;;;;5059733;28;20051;-95
2022/09/24 14:35:45;;;;;;;0.20;0.20;;;;;;;;;;5061973;28;20043;-94
2022/09/24 14:38:17;;;;;;;0.15;0.15;;;;;;;;;;5066371;28;20492;-95
2022/09/24 14:40:45;;;;;;;0.10;0.10;;;;;;;;;;5080668;28;20043;-93
2022/09/24 14:43:16;;;;;;;0.13;0.13;;;;;;;;;;5066947;28;20492;-94
2022/09/24 14:45:42;;;;;;;0.20;0.20;;;;;;;;;;5063716;28;20117;-94
2022/09/24 14:48:28;;;;;;;0.10;0.10;;;;;;;;;;5066822;28;20388;-95
2022/09/24 14:50:54;;;;;;;0.10;0.10;;;;;;;;;;5060412;28;20037;-95
2022/09/24 14:53:34;;;;;;;0.10;0.10;;;;;;;;;;5062792;28;20103;-94
2022/09/24 14:56:21;;;;;;;0.10;0.10;;;;;;;;;;5066147;28;20476;-94
2022/09/24 14:58:47;;;;;;;0.10;0.10;;;;;;;;;;5072466;28;20407;-96
2022/09/24 15:01:18;;;;;;;0.15;0.15;;;;;;;;;;5066429;28;20118;-95
2022/09/24 15:03:48;;;;;;;0.20;0.20;;;;;;;;;;5063165;28;20032;-93
2022/09/24 15:06:22;;;;;;;0.05;0.05;;;;;;;;;;5063466;28;20166;-96
2022/09/24 15:09:12;;;;;;;0.10;0.10;;;;;;;;;;5065373;28;20032;-95
2022/09/24 15:11:38;;;;;;;0.30;0.30;;;;;;;;;;5072567;28;20055;-94
2022/09/24 15:14:18;;;;;;;0.20;0.20;;;;;;;;;;5065841;28;20032;-95
2022/09/24 15:16:46;;;;;;;0.10;0.10;;;;;;;;;;5066714;28;20096;-94
2022/09/24 15:19:16;;;;;;;0.20;0.20;;;;;;;;;;5069670;28;20039;-95